Terminal Aerodrome Forecast
Issued by NWS St Louis, MO

Home | Current Version | Previous Version | Text Only | Print | Product List | Glossary On
Versions: 1 2 3 4 5 6 7 8 9 10 11 12 13 14 15
000
FTUS43 KLSX 191120
TAFCOU
TAF
KCOU 191120Z 1912/2012 00000KT 3/4SM BR BKN005
      TEMPO 1912/1914 1/4SM FG VV001
     FM191400 00000KT 1SM BR SCT008
     FM191500 16004KT 1 1/2SM BR BKN010
     FM191600 17005KT P6SM SCT015
     FM191800 18005KT P6SM FEW200=

USA.gov is the U.S. government's official web portal to all federal, state and local government web resources and services.